sensor_id;sensor_type;location;lat;lon;timestamp;temperature;humidity
54429;DHT22;40337;52.978;6.310;2023-06-19T00:00:56;21.40;99.90
54429;DHT22;40337;52.978;6.310;2023-06-19T00:03:22;21.40;99.90
54429;DHT22;40337;52.978;6.310;2023-06-19T00:05:47;21.40;99.90
54429;DHT22;40337;52.978;6.310;2023-06-19T00:08:13;21.40;99.90
54429;DHT22;40337;52.978;6.310;2023-06-19T00:10:39;21.40;99.90
54429;DHT22;40337;52.978;6.310;2023-06-19T00:13:04;21.40;99.90
54429;DHT22;40337;52.978;6.310;2023-06-19T00:15:30;21.40;99.90
54429;DHT22;40337;52.978;6.310;2023-06-19T00:17:58;21.40;99.90
54429;DHT22;40337;52.978;6.310;2023-06-19T00:20:24;21.40;99.90
54429;DHT22;40337;52.978;6.310;2023-06-19T00:22:50;21.40;99.90
54429;DHT22;40337;52.978;6.310;2023-06-19T00:25:18;21.40;99.90
54429;DHT22;40337;52.978;6.310;2023-06-19T00:27:44;21.40;99.90
54429;DHT22;40337;52.978;6.310;2023-06-19T00:30:10;21.40;99.90
54429;DHT22;40337;52.978;6.310;2023-06-19T00:32:36;21.40;99.90
54429;DHT22;40337;52.978;6.310;2023-06-19T00:35:12;21.40;99.90
54429;DHT22;40337;52.978;6.310;2023-06-19T00:37:38;21.40;99.90
54429;DHT22;40337;52.978;6.310;2023-06-19T00:40:05;21.40;99.90
54429;DHT22;40337;52.978;6.310;2023-06-19T00:42:32;21.30;99.90
54429;DHT22;40337;52.978;6.310;2023-06-19T00:44:58;21.30;99.90
54429;DHT22;40337;52.978;6.310;2023-06-19T00:47:24;21.30;99.90
54429;DHT22;40337;52.978;6.310;2023-06-19T00:49:51;21.20;99.90
54429;DHT22;40337;52.978;6.310;2023-06-19T00:52:16;21.30;99.90
54429;DHT22;40337;52.978;6.310;2023-06-19T00:54:43;21.20;99.90
54429;DHT22;40337;52.978;6.310;2023-06-19T00:57:09;21.20;99.90
54429;DHT22;40337;52.978;6.310;2023-06-19T00:59:34;21.20;99.90
54429;DHT22;40337;52.978;6.310;2023-06-19T01:02:01;21.20;99.90
54429;DHT22;40337;52.978;6.310;2023-06-19T01:04:27;21.20;99.90
54429;DHT22;40337;52.978;6.310;2023-06-19T01:06:56;21.20;99.90
54429;DHT22;40337;52.978;6.310;2023-06-19T01:09:28;21.20;99.90
54429;DHT22;40337;52.978;6.310;2023-06-19T01:12:01;21.20;99.90
54429;DHT22;40337;52.978;6.310;2023-06-19T01:14:35;21.20;99.90
54429;DHT22;40337;52.978;6.310;2023-06-19T01:17:03;21.20;99.90
54429;DHT22;40337;52.978;6.310;2023-06-19T01:19:29;21.20;99.90
54429;DHT22;40337;52.978;6.310;2023-06-19T01:21:55;21.20;99.90
54429;DHT22;40337;52.978;6.310;2023-06-19T01:24:21;21.10;99.90
54429;DHT22;40337;52.978;6.310;2023-06-19T01:26:46;21.10;99.90
54429;DHT22;40337;52.978;6.310;2023-06-19T01:29:16;21.10;99.90
54429;DHT22;40337;52.978;6.310;2023-06-19T01:32:02;21.10;99.90
54429;DHT22;40337;52.978;6.310;2023-06-19T01:34:30;21.10;99.90
54429;DHT22;40337;52.978;6.310;2023-06-19T01:36:56;21.10;99.90
54429;DHT22;40337;52.978;6.310;2023-06-19T01:39:23;21.00;99.90
54429;DHT22;40337;52.978;6.310;2023-06-19T01:41:49;21.00;99.90
54429;DHT22;40337;52.978;6.310;2023-06-19T01:44:15;21.00;99.90
54429;DHT22;40337;52.978;6.310;2023-06-19T01:46:41;21.10;99.90
54429;DHT22;40337;52.978;6.310;2023-06-19T01:49:08;21.00;99.90
54429;DHT22;40337;52.978;6.310;2023-06-19T01:51:36;21.00;99.90
54429;DHT22;40337;52.978;6.310;2023-06-19T01:54:02;21.00;99.90
54429;DHT22;40337;52.978;6.310;2023-06-19T01:56:28;21.00;99.90
54429;DHT22;40337;52.978;6.310;2023-06-19T01:58:54;21.00;99.90
54429;DHT22;40337;52.978;6.310;2023-06-19T02:01:21;21.00;99.90
54429;DHT22;40337;52.978;6.310;2023-06-19T02:03:46;21.00;99.90
54429;DHT22;40337;52.978;6.310;2023-06-19T02:06:12;21.00;99.90
54429;DHT22;40337;52.978;6.310;2023-06-19T02:08:37;21.00;99.90
54429;DHT22;40337;52.978;6.310;2023-06-19T02:11:03;21.00;99.90
54429;DHT22;40337;52.978;6.310;2023-06-19T02:13:28;21.00;99.90
54429;DHT22;40337;52.978;6.310;2023-06-19T02:15:54;21.00;99.60
54429;DHT22;40337;52.978;6.310;2023-06-19T02:18:20;21.00;99.60
54429;DHT22;40337;52.978;6.310;2023-06-19T02:20:45;21.00;99.20
54429;DHT22;40337;52.978;6.310;2023-06-19T02:23:11;21.00;99.40
54429;DHT22;40337;52.978;6.310;2023-06-19T02:25:36;21.00;99.90
54429;DHT22;40337;52.978;6.310;2023-06-19T02:28:02;20.90;99.90
54429;DHT22;40337;52.978;6.310;2023-06-19T02:30:28;20.90;99.90
54429;DHT22;40337;52.978;6.310;2023-06-19T02:32:54;20.90;99.90
54429;DHT22;40337;52.978;6.310;2023-06-19T02:35:20;20.90;99.90
54429;DHT22;40337;52.978;6.310;2023-06-19T02:37:45;20.90;99.90
54429;DHT22;40337;52.978;6.310;2023-06-19T02:40:13;20.80;99.90
54429;DHT22;40337;52.978;6.310;2023-06-19T02:42:40;20.80;99.90
54429;DHT22;40337;52.978;6.310;2023-06-19T02:45:06;20.90;99.90
54429;DHT22;40337;52.978;6.310;2023-06-19T02:47:32;20.90;99.70
54429;DHT22;40337;52.978;6.310;2023-06-19T02:50:02;21.00;99.20
54429;DHT22;40337;52.978;6.310;2023-06-19T02:52:30;21.00;99.00
54429;DHT22;40337;52.978;6.310;2023-06-19T02:54:55;21.00;99.10
54429;DHT22;40337;52.978;6.310;2023-06-19T02:57:21;21.10;99.20
54429;DHT22;40337;52.978;6.310;2023-06-19T02:59:47;21.10;99.00
54429;DHT22;40337;52.978;6.310;2023-06-19T03:02:12;21.10;98.80
54429;DHT22;40337;52.978;6.310;2023-06-19T03:04:39;21.10;98.70
54429;DHT22;40337;52.978;6.310;2023-06-19T03:07:06;21.10;98.60
54429;DHT22;40337;52.978;6.310;2023-06-19T03:09:31;21.10;98.80
54429;DHT22;40337;52.978;6.310;2023-06-19T03:11:57;21.10;98.60
54429;DHT22;40337;52.978;6.310;2023-06-19T03:14:22;21.20;98.60
54429;DHT22;40337;52.978;6.310;2023-06-19T03:16:48;21.20;98.70
54429;DHT22;40337;52.978;6.310;2023-06-19T03:19:13;21.20;98.80
54429;DHT22;40337;52.978;6.310;2023-06-19T03:21:39;21.20;98.80
54429;DHT22;40337;52.978;6.310;2023-06-19T03:24:05;21.20;98.90
54429;DHT22;40337;52.978;6.310;2023-06-19T03:26:31;21.20;99.00
54429;DHT22;40337;52.978;6.310;2023-06-19T03:28:56;21.20;99.20
54429;DHT22;40337;52.978;6.310;2023-06-19T03:31:22;21.20;99.50
54429;DHT22;40337;52.978;6.310;2023-06-19T03:33:48;21.20;99.70
54429;DHT22;40337;52.978;6.310;2023-06-19T03:36:13;21.20;99.90
54429;DHT22;40337;52.978;6.310;2023-06-19T03:38:39;21.20;99.90
54429;DHT22;40337;52.978;6.310;2023-06-19T03:41:05;21.20;99.90
54429;DHT22;40337;52.978;6.310;2023-06-19T03:43:30;21.20;99.90
54429;DHT22;40337;52.978;6.310;2023-06-19T03:45:56;21.10;99.90
54429;DHT22;40337;52.978;6.310;2023-06-19T03:48:21;21.10;99.90
54429;DHT22;40337;52.978;6.310;2023-06-19T03:50:47;21.10;99.90
54429;DHT22;40337;52.978;6.310;2023-06-19T03:53:12;21.00;99.90
54429;DHT22;40337;52.978;6.310;2023-06-19T03:55:38;21.00;99.90
54429;DHT22;40337;52.978;6.310;2023-06-19T03:58:03;20.90;99.90
54429;DHT22;40337;52.978;6.310;2023-06-19T04:00:29;20.90;99.90
54429;DHT22;40337;52.978;6.310;2023-06-19T04:02:54;20.80;99.90
54429;DHT22;40337;52.978;6.310;2023-06-19T04:05:20;20.80;99.90
54429;DHT22;40337;52.978;6.310;2023-06-19T04:07:45;20.80;99.90
54429;DHT22;40337;52.978;6.310;2023-06-19T04:10:11;20.70;99.90
54429;DHT22;40337;52.978;6.310;2023-06-19T04:12:37;20.70;99.90
54429;DHT22;40337;52.978;6.310;2023-06-19T04:15:04;20.60;99.90
54429;DHT22;40337;52.978;6.310;2023-06-19T04:17:29;20.60;99.90
54429;DHT22;40337;52.978;6.310;2023-06-19T04:19:55;20.50;99.90
54429;DHT22;40337;52.978;6.310;2023-06-19T04:22:20;20.50;99.90
54429;DHT22;40337;52.978;6.310;2023-06-19T04:24:46;20.50;99.90
54429;DHT22;40337;52.978;6.310;2023-06-19T04:27:11;20.40;99.90
54429;DHT22;40337;52.978;6.310;2023-06-19T04:29:37;20.40;99.90
54429;DHT22;40337;52.978;6.310;2023-06-19T04:32:03;20.30;99.90
54429;DHT22;40337;52.978;6.310;2023-06-19T04:34:36;20.30;99.90
54429;DHT22;40337;52.978;6.310;2023-06-19T04:37:02;20.30;99.90
54429;DHT22;40337;52.978;6.310;2023-06-19T04:39:28;20.30;99.90
54429;DHT22;40337;52.978;6.310;2023-06-19T04:41:53;20.30;99.90
54429;DHT22;40337;52.978;6.310;2023-06-19T04:44:19;20.30;99.90
54429;DHT22;40337;52.978;6.310;2023-06-19T04:46:44;20.30;99.90
54429;DHT22;40337;52.978;6.310;2023-06-19T04:49:10;20.30;99.90
54429;DHT22;40337;52.978;6.310;2023-06-19T04:51:35;20.30;99.90
54429;DHT22;40337;52.978;6.310;2023-06-19T04:54:02;20.30;99.90
54429;DHT22;40337;52.978;6.310;2023-06-19T04:56:28;20.30;99.90
54429;DHT22;40337;52.978;6.310;2023-06-19T04:58:54;20.30;99.90
54429;DHT22;40337;52.978;6.310;2023-06-19T05:01:24;20.30;99.90
54429;DHT22;40337;52.978;6.310;2023-06-19T05:03:54;20.30;99.90
54429;DHT22;40337;52.978;6.310;2023-06-19T05:06:20;20.30;99.90
54429;DHT22;40337;52.978;6.310;2023-06-19T05:08:47;20.30;99.90
54429;DHT22;40337;52.978;6.310;2023-06-19T05:11:12;20.40;99.90
54429;DHT22;40337;52.978;6.310;2023-06-19T05:13:38;20.40;99.90
54429;DHT22;40337;52.978;6.310;2023-06-19T05:16:04;20.50;99.90
54429;DHT22;40337;52.978;6.310;2023-06-19T05:18:29;20.50;99.90
54429;DHT22;40337;52.978;6.310;2023-06-19T05:20:55;20.50;99.90
54429;DHT22;40337;52.978;6.310;2023-06-19T05:23:20;20.60;99.90
54429;DHT22;40337;52.978;6.310;2023-06-19T05:25:46;20.60;99.90
54429;DHT22;40337;52.978;6.310;2023-06-19T05:28:12;20.60;99.90
54429;DHT22;40337;52.978;6.310;2023-06-19T05:30:37;20.60;99.90
54429;DHT22;40337;52.978;6.310;2023-06-19T05:33:03;20.60;99.90
54429;DHT22;40337;52.978;6.310;2023-06-19T05:35:28;20.60;99.90
54429;DHT22;40337;52.978;6.310;2023-06-19T05:37:55;20.60;99.90
54429;DHT22;40337;52.978;6.310;2023-06-19T05:40:21;20.60;99.90
54429;DHT22;40337;52.978;6.310;2023-06-19T05:42:47;20.60;99.90
54429;DHT22;40337;52.978;6.310;2023-06-19T05:45:12;20.60;99.90
54429;DHT22;40337;52.978;6.310;2023-06-19T05:47:38;20.60;99.90
54429;DHT22;40337;52.978;6.310;2023-06-19T05:50:04;20.60;99.90
54429;DHT22;40337;52.978;6.310;2023-06-19T05:52:29;20.60;99.90
54429;DHT22;40337;52.978;6.310;2023-06-19T05:54:55;20.60;99.90
54429;DHT22;40337;52.978;6.310;2023-06-19T05:57:20;20.50;99.90
54429;DHT22;40337;52.978;6.310;2023-06-19T05:59:50;20.60;99.90
54429;DHT22;40337;52.978;6.310;2023-06-19T06:02:17;20.60;99.90
54429;DHT22;40337;52.978;6.310;2023-06-19T06:04:43;20.60;99.90
54429;DHT22;40337;52.978;6.310;2023-06-19T06:07:08;20.60;99.90
54429;DHT22;40337;52.978;6.310;2023-06-19T06:09:34;20.70;99.90
54429;DHT22;40337;52.978;6.310;2023-06-19T06:12:00;20.70;99.90
54429;DHT22;40337;52.978;6.310;2023-06-19T06:14:26;20.80;99.90
54429;DHT22;40337;52.978;6.310;2023-06-19T06:16:52;20.80;99.90
54429;DHT22;40337;52.978;6.310;2023-06-19T06:19:19;20.80;99.90
54429;DHT22;40337;52.978;6.310;2023-06-19T06:21:45;20.70;99.90
54429;DHT22;40337;52.978;6.310;2023-06-19T06:24:11;20.70;99.90
54429;DHT22;40337;52.978;6.310;2023-06-19T06:26:36;20.60;99.90
54429;DHT22;40337;52.978;6.310;2023-06-19T06:29:02;20.60;99.90
54429;DHT22;40337;52.978;6.310;2023-06-19T06:31:28;20.60;99.90
54429;DHT22;40337;52.978;6.310;2023-06-19T06:33:53;20.50;99.90
54429;DHT22;40337;52.978;6.310;2023-06-19T06:36:19;20.50;99.90
54429;DHT22;40337;52.978;6.310;2023-06-19T06:38:45;20.50;99.90
54429;DHT22;40337;52.978;6.310;2023-06-19T06:41:10;20.40;99.90
54429;DHT22;40337;52.978;6.310;2023-06-19T06:43:36;20.40;99.90
54429;DHT22;40337;52.978;6.310;2023-06-19T06:46:01;20.40;99.90
54429;DHT22;40337;52.978;6.310;2023-06-19T06:48:27;20.30;99.90
54429;DHT22;40337;52.978;6.310;2023-06-19T06:50:52;20.30;99.90
54429;DHT22;40337;52.978;6.310;2023-06-19T06:53:25;20.20;99.90
54429;DHT22;40337;52.978;6.310;2023-06-19T06:55:51;20.20;99.90
54429;DHT22;40337;52.978;6.310;2023-06-19T06:58:17;20.10;99.90
54429;DHT22;40337;52.978;6.310;2023-06-19T07:00:44;20.10;99.90
54429;DHT22;40337;52.978;6.310;2023-06-19T07:03:09;20.10;99.90
54429;DHT22;40337;52.978;6.310;2023-06-19T07:05:35;20.10;99.90
54429;DHT22;40337;52.978;6.310;2023-06-19T07:08:01;20.10;99.90
54429;DHT22;40337;52.978;6.310;2023-06-19T07:10:26;20.10;99.90
54429;DHT22;40337;52.978;6.310;2023-06-19T07:12:52;20.20;99.90
54429;DHT22;40337;52.978;6.310;2023-06-19T07:15:17;20.20;99.90
54429;DHT22;40337;52.978;6.310;2023-06-19T07:17:44;20.20;99.90
54429;DHT22;40337;52.978;6.310;2023-06-19T07:20:10;20.30;99.90
54429;DHT22;40337;52.978;6.310;2023-06-19T07:22:36;20.30;99.90
54429;DHT22;40337;52.978;6.310;2023-06-19T07:25:02;20.30;99.90
54429;DHT22;40337;52.978;6.310;2023-06-19T07:27:29;20.30;99.90
54429;DHT22;40337;52.978;6.310;2023-06-19T07:29:55;20.30;99.90
54429;DHT22;40337;52.978;6.310;2023-06-19T07:32:20;20.30;99.90
54429;DHT22;40337;52.978;6.310;2023-06-19T07:34:46;20.30;99.90
54429;DHT22;40337;52.978;6.310;2023-06-19T07:37:12;20.30;99.90
54429;DHT22;40337;52.978;6.310;2023-06-19T07:39:46;20.20;99.90
54429;DHT22;40337;52.978;6.310;2023-06-19T07:42:13;20.20;99.90
54429;DHT22;40337;52.978;6.310;2023-06-19T07:44:40;20.20;99.90
54429;DHT22;40337;52.978;6.310;2023-06-19T07:47:06;20.10;99.90
54429;DHT22;40337;52.978;6.310;2023-06-19T07:49:32;20.10;99.90
54429;DHT22;40337;52.978;6.310;2023-06-19T07:51:57;20.00;99.90
54429;DHT22;40337;52.978;6.310;2023-06-19T07:54:23;20.00;99.90
54429;DHT22;40337;52.978;6.310;2023-06-19T07:56:48;20.00;99.90
54429;DHT22;40337;52.978;6.310;2023-06-19T07:59:14;20.00;99.90
54429;DHT22;40337;52.978;6.310;2023-06-19T08:01:39;20.00;99.90
54429;DHT22;40337;52.978;6.310;2023-06-19T08:04:06;20.00;99.90
54429;DHT22;40337;52.978;6.310;2023-06-19T08:06:31;20.00;99.90
54429;DHT22;40337;52.978;6.310;2023-06-19T08:08:57;20.00;99.90
54429;DHT22;40337;52.978;6.310;2023-06-19T08:11:23;20.10;99.90
54429;DHT22;40337;52.978;6.310;2023-06-19T08:13:48;20.10;99.90
54429;DHT22;40337;52.978;6.310;2023-06-19T08:16:14;20.10;99.90
54429;DHT22;40337;52.978;6.310;2023-06-19T08:18:40;20.10;99.90
54429;DHT22;40337;52.978;6.310;2023-06-19T08:21:05;20.10;99.90
54429;DHT22;40337;52.978;6.310;2023-06-19T08:23:31;20.20;99.90
54429;DHT22;40337;52.978;6.310;2023-06-19T08:25:56;20.20;99.90
54429;DHT22;40337;52.978;6.310;2023-06-19T08:28:22;20.20;99.90
54429;DHT22;40337;52.978;6.310;2023-06-19T08:30:47;20.20;99.90
54429;DHT22;40337;52.978;6.310;2023-06-19T08:33:13;20.30;99.90
54429;DHT22;40337;52.978;6.310;2023-06-19T08:35:39;20.30;99.90
54429;DHT22;40337;52.978;6.310;2023-06-19T08:38:05;20.40;99.90
54429;DHT22;40337;52.978;6.310;2023-06-19T08:40:30;20.50;99.90
54429;DHT22;40337;52.978;6.310;2023-06-19T08:42:56;20.50;99.90
54429;DHT22;40337;52.978;6.310;2023-06-19T08:45:22;20.50;99.90
54429;DHT22;40337;52.978;6.310;2023-06-19T08:47:48;20.60;99.90
54429;DHT22;40337;52.978;6.310;2023-06-19T08:50:15;20.80;99.90
54429;DHT22;40337;52.978;6.310;2023-06-19T08:52:41;21.20;99.90
54429;DHT22;40337;52.978;6.310;2023-06-19T08:55:07;21.50;99.90
54429;DHT22;40337;52.978;6.310;2023-06-19T08:57:39;21.40;99.90
54429;DHT22;40337;52.978;6.310;2023-06-19T09:00:06;21.40;99.90
54429;DHT22;40337;52.978;6.310;2023-06-19T09:02:44;21.40;99.90
54429;DHT22;40337;52.978;6.310;2023-06-19T09:05:15;21.40;99.90
54429;DHT22;40337;52.978;6.310;2023-06-19T09:07:43;21.60;99.90
54429;DHT22;40337;52.978;6.310;2023-06-19T09:10:16;21.70;99.90
54429;DHT22;40337;52.978;6.310;2023-06-19T09:12:43;21.70;99.90
54429;DHT22;40337;52.978;6.310;2023-06-19T09:15:14;21.60;99.90
54429;DHT22;40337;52.978;6.310;2023-06-19T09:17:40;21.50;99.90
54429;DHT22;40337;52.978;6.310;2023-06-19T09:20:06;21.50;99.90
54429;DHT22;40337;52.978;6.310;2023-06-19T09:22:32;21.60;99.90
54429;DHT22;40337;52.978;6.310;2023-06-19T09:25:01;21.60;99.90
54429;DHT22;40337;52.978;6.310;2023-06-19T09:27:33;21.70;99.90
54429;DHT22;40337;52.978;6.310;2023-06-19T09:29:59;21.60;99.90
54429;DHT22;40337;52.978;6.310;2023-06-19T09:32:27;21.50;99.90
54429;DHT22;40337;52.978;6.310;2023-06-19T09:34:56;21.50;99.90
54429;DHT22;40337;52.978;6.310;2023-06-19T09:37:28;21.70;99.90
54429;DHT22;40337;52.978;6.310;2023-06-19T09:39:56;21.60;99.90
54429;DHT22;40337;52.978;6.310;2023-06-19T09:42:31;21.60;99.90
54429;DHT22;40337;52.978;6.310;2023-06-19T09:45:11;21.50;99.90
54429;DHT22;40337;52.978;6.310;2023-06-19T09:47:44;21.40;99.90
54429;DHT22;40337;52.978;6.310;2023-06-19T09:50:15;21.30;99.90
54429;DHT22;40337;52.978;6.310;2023-06-19T09:52:42;21.00;99.90
54429;DHT22;40337;52.978;6.310;2023-06-19T09:55:09;20.90;99.90
54429;DHT22;40337;52.978;6.310;2023-06-19T09:57:38;20.80;99.90
54429;DHT22;40337;52.978;6.310;2023-06-19T10:00:05;20.80;99.90
54429;DHT22;40337;52.978;6.310;2023-06-19T10:02:37;20.80;99.90
54429;DHT22;40337;52.978;6.310;2023-06-19T10:05:04;20.90;99.90
54429;DHT22;40337;52.978;6.310;2023-06-19T10:07:34;20.90;99.90
54429;DHT22;40337;52.978;6.310;2023-06-19T10:10:04;20.80;99.90
54429;DHT22;40337;52.978;6.310;2023-06-19T10:12:41;20.70;99.90
54429;DHT22;40337;52.978;6.310;2023-06-19T10:15:20;20.60;99.90
54429;DHT22;40337;52.978;6.310;2023-06-19T10:18:03;20.70;99.90
54429;DHT22;40337;52.978;6.310;2023-06-19T10:20:32;20.90;99.90
54429;DHT22;40337;52.978;6.310;2023-06-19T10:23:05;21.00;99.90
54429;DHT22;40337;52.978;6.310;2023-06-19T10:25:33;21.00;99.90
54429;DHT22;40337;52.978;6.310;2023-06-19T10:27:59;21.00;99.90
54429;DHT22;40337;52.978;6.310;2023-06-19T10:30:25;21.00;99.90
54429;DHT22;40337;52.978;6.310;2023-06-19T10:32:51;21.10;99.90
54429;DHT22;40337;52.978;6.310;2023-06-19T10:35:19;21.20;99.90
54429;DHT22;40337;52.978;6.310;2023-06-19T10:37:49;21.20;99.90
54429;DHT22;40337;52.978;6.310;2023-06-19T10:40:15;21.10;99.90
54429;DHT22;40337;52.978;6.310;2023-06-19T10:42:41;21.10;99.90
54429;DHT22;40337;52.978;6.310;2023-06-19T10:45:10;21.10;99.90
54429;DHT22;40337;52.978;6.310;2023-06-19T10:47:40;21.10;99.90
54429;DHT22;40337;52.978;6.310;2023-06-19T10:50:13;21.20;99.90
54429;DHT22;40337;52.978;6.310;2023-06-19T10:52:40;21.30;99.90
54429;DHT22;40337;52.978;6.310;2023-06-19T10:55:07;21.30;99.90
54429;DHT22;40337;52.978;6.310;2023-06-19T10:57:33;21.30;99.90
54429;DHT22;40337;52.978;6.310;2023-06-19T10:59:58;21.30;99.90
54429;DHT22;40337;52.978;6.310;2023-06-19T11:02:25;21.30;99.90
54429;DHT22;40337;52.978;6.310;2023-06-19T11:04:54;21.30;99.90
54429;DHT22;40337;52.978;6.310;2023-06-19T11:07:21;21.60;99.90
54429;DHT22;40337;52.978;6.310;2023-06-19T11:09:48;22.00;99.90
54429;DHT22;40337;52.978;6.310;2023-06-19T11:12:21;22.50;99.90
54429;DHT22;40337;52.978;6.310;2023-06-19T11:14:50;23.00;99.90
54429;DHT22;40337;52.978;6.310;2023-06-19T11:17:17;23.00;99.90
54429;DHT22;40337;52.978;6.310;2023-06-19T11:19:46;22.70;99.90
54429;DHT22;40337;52.978;6.310;2023-06-19T11:22:11;22.90;99.90
54429;DHT22;40337;52.978;6.310;2023-06-19T11:24:42;23.00;99.90
54429;DHT22;40337;52.978;6.310;2023-06-19T11:27:16;23.60;99.90
54429;DHT22;40337;52.978;6.310;2023-06-19T11:29:42;24.00;99.90
54429;DHT22;40337;52.978;6.310;2023-06-19T11:32:16;23.80;99.90
54429;DHT22;40337;52.978;6.310;2023-06-19T11:34:42;23.90;99.90
54429;DHT22;40337;52.978;6.310;2023-06-19T11:37:14;23.80;99.90
54429;DHT22;40337;52.978;6.310;2023-06-19T11:39:41;23.60;99.90
54429;DHT22;40337;52.978;6.310;2023-06-19T11:42:08;23.40;99.90
54429;DHT22;40337;52.978;6.310;2023-06-19T11:44:34;23.40;99.90
54429;DHT22;40337;52.978;6.310;2023-06-19T11:47:00;23.40;99.90
54429;DHT22;40337;52.978;6.310;2023-06-19T11:49:26;23.50;99.90
54429;DHT22;40337;52.978;6.310;2023-06-19T11:51:51;23.80;99.90
54429;DHT22;40337;52.978;6.310;2023-06-19T11:54:17;24.10;99.90
54429;DHT22;40337;52.978;6.310;2023-06-19T11:56:46;24.10;99.90
54429;DHT22;40337;52.978;6.310;2023-06-19T11:59:13;24.20;99.90
54429;DHT22;40337;52.978;6.310;2023-06-19T12:01:39;24.40;99.90
54429;DHT22;40337;52.978;6.310;2023-06-19T12:04:06;24.50;99.90
54429;DHT22;40337;52.978;6.310;2023-06-19T12:06:31;24.70;99.70
54429;DHT22;40337;52.978;6.310;2023-06-19T12:08:57;24.80;99.60
54429;DHT22;40337;52.978;6.310;2023-06-19T12:11:23;24.80;99.40
54429;DHT22;40337;52.978;6.310;2023-06-19T12:13:50;24.70;98.90
54429;DHT22;40337;52.978;6.310;2023-06-19T12:16:16;24.80;98.80
54429;DHT22;40337;52.978;6.310;2023-06-19T12:18:41;24.80;98.90
54429;DHT22;40337;52.978;6.310;2023-06-19T12:21:07;24.90;99.00
54429;DHT22;40337;52.978;6.310;2023-06-19T12:23:32;25.10;98.50
54429;DHT22;40337;52.978;6.310;2023-06-19T12:25:58;24.90;98.60
54429;DHT22;40337;52.978;6.310;2023-06-19T12:28:24;25.10;99.00
54429;DHT22;40337;52.978;6.310;2023-06-19T12:30:50;25.20;99.20
54429;DHT22;40337;52.978;6.310;2023-06-19T12:33:20;25.40;99.10
54429;DHT22;40337;52.978;6.310;2023-06-19T12:35:46;25.30;98.90
54429;DHT22;40337;52.978;6.310;2023-06-19T12:38:12;25.30;98.40
54429;DHT22;40337;52.978;6.310;2023-06-19T12:40:38;25.40;98.40
54429;DHT22;40337;52.978;6.310;2023-06-19T12:43:04;25.40;98.60
54429;DHT22;40337;52.978;6.310;2023-06-19T12:45:30;25.70;98.80
54429;DHT22;40337;52.978;6.310;2023-06-19T12:47:55;26.00;98.80
54429;DHT22;40337;52.978;6.310;2023-06-19T12:50:21;26.20;97.80
54429;DHT22;40337;52.978;6.310;2023-06-19T12:52:47;26.10;97.30
54429;DHT22;40337;52.978;6.310;2023-06-19T12:55:13;25.90;97.20
54429;DHT22;40337;52.978;6.310;2023-06-19T12:57:38;25.60;97.10
54429;DHT22;40337;52.978;6.310;2023-06-19T13:00:09;25.80;97.10
54429;DHT22;40337;52.978;6.310;2023-06-19T13:02:35;26.10;97.30
54429;DHT22;40337;52.978;6.310;2023-06-19T13:05:01;26.00;97.00
54429;DHT22;40337;52.978;6.310;2023-06-19T13:07:26;26.20;97.40
54429;DHT22;40337;52.978;6.310;2023-06-19T13:09:52;26.60;97.70
54429;DHT22;40337;52.978;6.310;2023-06-19T13:12:17;26.50;96.80
54429;DHT22;40337;52.978;6.310;2023-06-19T13:14:43;26.50;96.80
54429;DHT22;40337;52.978;6.310;2023-06-19T13:17:08;26.50;96.50
54429;DHT22;40337;52.978;6.310;2023-06-19T13:19:34;26.80;96.30
54429;DHT22;40337;52.978;6.310;2023-06-19T13:22:00;26.90;96.20
54429;DHT22;40337;52.978;6.310;2023-06-19T13:24:25;27.10;95.90
54429;DHT22;40337;52.978;6.310;2023-06-19T13:26:54;27.10;95.60
54429;DHT22;40337;52.978;6.310;2023-06-19T13:29:19;27.20;95.60
54429;DHT22;40337;52.978;6.310;2023-06-19T13:31:45;27.30;94.90
54429;DHT22;40337;52.978;6.310;2023-06-19T13:34:11;27.30;94.90
54429;DHT22;40337;52.978;6.310;2023-06-19T13:36:37;27.10;94.50
54429;DHT22;40337;52.978;6.310;2023-06-19T13:39:03;27.20;94.30
54429;DHT22;40337;52.978;6.310;2023-06-19T13:41:29;27.20;94.40
54429;DHT22;40337;52.978;6.310;2023-06-19T13:43:58;27.30;95.10
54429;DHT22;40337;52.978;6.310;2023-06-19T13:46:24;27.50;94.70
54429;DHT22;40337;52.978;6.310;2023-06-19T13:48:49;27.40;94.10
54429;DHT22;40337;52.978;6.310;2023-06-19T13:51:18;27.40;93.20
54429;DHT22;40337;52.978;6.310;2023-06-19T13:53:43;27.40;93.20
54429;DHT22;40337;52.978;6.310;2023-06-19T13:56:10;27.20;93.10
54429;DHT22;40337;52.978;6.310;2023-06-19T13:58:35;27.20;93.20
54429;DHT22;40337;52.978;6.310;2023-06-19T14:01:01;27.20;93.20
54429;DHT22;40337;52.978;6.310;2023-06-19T14:03:26;27.10;93.30
54429;DHT22;40337;52.978;6.310;2023-06-19T14:05:52;27.30;92.80
54429;DHT22;40337;52.978;6.310;2023-06-19T14:08:18;27.40;92.90
54429;DHT22;40337;52.978;6.310;2023-06-19T14:10:43;27.50;92.50
54429;DHT22;40337;52.978;6.310;2023-06-19T14:13:09;27.40;92.80
54429;DHT22;40337;52.978;6.310;2023-06-19T14:15:34;27.50;92.90
54429;DHT22;40337;52.978;6.310;2023-06-19T14:18:00;27.40;92.50
54429;DHT22;40337;52.978;6.310;2023-06-19T14:20:25;27.40;92.50
54429;DHT22;40337;52.978;6.310;2023-06-19T14:22:51;27.40;92.00
54429;DHT22;40337;52.978;6.310;2023-06-19T14:25:16;27.30;92.10
54429;DHT22;40337;52.978;6.310;2023-06-19T14:27:42;27.40;91.90
54429;DHT22;40337;52.978;6.310;2023-06-19T14:30:08;27.30;91.70
54429;DHT22;40337;52.978;6.310;2023-06-19T14:32:35;27.20;91.80
54429;DHT22;40337;52.978;6.310;2023-06-19T14:35:02;27.20;91.10
54429;DHT22;40337;52.978;6.310;2023-06-19T14:37:28;27.30;91.60
54429;DHT22;40337;52.978;6.310;2023-06-19T14:39:54;27.20;91.20
54429;DHT22;40337;52.978;6.310;2023-06-19T14:42:20;27.20;90.80
54429;DHT22;40337;52.978;6.310;2023-06-19T14:44:46;27.10;90.90
54429;DHT22;40337;52.978;6.310;2023-06-19T14:47:11;26.90;90.50
54429;DHT22;40337;52.978;6.310;2023-06-19T14:49:37;26.80;91.00
54429;DHT22;40337;52.978;6.310;2023-06-19T14:52:04;26.80;91.20
54429;DHT22;40337;52.978;6.310;2023-06-19T14:54:30;26.90;91.20
54429;DHT22;40337;52.978;6.310;2023-06-19T14:56:55;26.70;91.60
54429;DHT22;40337;52.978;6.310;2023-06-19T14:59:21;26.70;91.60
54429;DHT22;40337;52.978;6.310;2023-06-19T15:01:47;26.80;91.30
54429;DHT22;40337;52.978;6.310;2023-06-19T15:04:12;26.90;91.60
54429;DHT22;40337;52.978;6.310;2023-06-19T15:06:38;26.90;91.80
54429;DHT22;40337;52.978;6.310;2023-06-19T15:09:03;26.80;91.70
54429;DHT22;40337;52.978;6.310;2023-06-19T15:11:29;26.80;91.50
54429;DHT22;40337;52.978;6.310;2023-06-19T15:13:54;26.80;91.10
54429;DHT22;40337;52.978;6.310;2023-06-19T15:16:20;26.70;91.20
54429;DHT22;40337;52.978;6.310;2023-06-19T15:18:47;26.80;91.50
54429;DHT22;40337;52.978;6.310;2023-06-19T15:21:13;26.60;91.40
54429;DHT22;40337;52.978;6.310;2023-06-19T15:23:38;26.60;91.40
54429;DHT22;40337;52.978;6.310;2023-06-19T15:26:04;26.60;91.70